Terminal Aerodrome Forecast
Issued by NWS Duluth, MN

Home | Current Version | Previous Version | Text Only | Print | Product List | Glossary On
Versions: 1 2 3 4 5 6 7 8 9 10 11 12 13 14 15 16 17 18 19 20 21 22 23 24 25 26 27 28 29 30
219
FTUS43 KDLH 071440 AAB
TAFINL
TAF AMD
KINL 071440Z 0715/0812 22004KT 6SM -SN SCT007 OVC010
     FM071700 29011KT 2SM -SN OVC012
     FM072000 31012G19KT 2SM -SN BLSN OVC015
     FM080000 32015G24KT 4SM -SN BLSN OVC015
     FM080900 34013G20KT 6SM -SN BLSN OVC015=

USA.gov is the U.S. government's official web portal to all federal, state and local government web resources and services.